Latest Weather Observations for Cape Nelson

IDV60801

Issued at 4:33 pm EST Sunday 11 April 2021 (issued every 10 minutes, with the page automatically refreshed every 10 minutes)

About weather observations | Map of weather stations | Latest weather observations for VIC | Other Formats
Station Details ID: 090184 Name: CAPE NELSON LIGHTHOUSE Lat: -38.43 Lon: 141.54 Height: 45.4 m
Data from the previous 72 hours. | See also: Recent months at Cape Nelson
Date/Time
EST
Temp
°C
App
Temp
°C
Dew
Point
°C
Rel
Hum
%
Delta-T
°C
Wind Press
QNH
hPa
Press
MSL
hPa
Rain since
9am
mm
Dir  Spd
km/h
Gust
km/h
Spd
kts
Gust
kts
11/04:30pm 13.9 6.5 4.8 54 4.2 S 33 44 18 24 1021.7 1021.7 0.0
11/04:00pm 13.9 6.1 6.5 61 3.6 S 37 52 20 28 1021.4 1021.4 0.0
11/03:30pm 13.9 7.0 6.5 61 3.6 S 32 50 17 27 1021.1 1021.1 0.0
11/03:00pm 13.5 6.8 7.5 67 2.9 S 32 61 17 33 1020.9 1020.9 0.0
11/02:36pm 13.6 6.1 6.2 61 3.5 S 35 54 19 29 1020.6 1020.6 0.0
11/02:30pm 13.4 6.2 6.0 61 3.5 S 33 50 18 27 1020.6 1020.6 0.0
11/02:14pm 13.7 7.0 7.2 65 3.2 S 32 50 17 27 1020.1 1020.1 0.0
11/02:00pm 14.2 5.5 5.8 57 4.0 S 41 56 22 30 1020.4 1020.4 0.0
11/01:35pm 13.6 6.2 6.7 63 3.3 S 35 54 19 29 1020.3 1020.3 0.0
11/01:30pm 13.9 6.0 7.7 66 3.1 S 39 54 21 29 1020.4 1020.4 0.0
11/01:00pm 13.7 6.8 6.6 62 3.4 S 32 52 17 28 1020.4 1020.4 0.0
11/12:48pm 13.8 6.5 7.1 64 3.3 S 35 54 19 29 1020.3 1020.3 0.0
11/12:30pm 13.7 4.7 6.3 61 3.5 S 43 52 23 28 1020.4 1020.4 0.0
11/12:12pm 13.9 6.0 6.0 59 3.8 S 37 56 20 30 1020.5 1020.5 0.0
11/12:00pm 13.1 4.5 6.7 65 3.1 S 41 56 22 30 1020.5 1020.5 0.0
11/11:42am 13.3 6.0 7.1 66 3.0 S 35 54 19 29 1020.3 1020.3 0.0
11/11:30am 14.1 5.7 5.7 57 4.0 S 39 56 21 30 1020.3 1020.3 0.0
11/11:00am 13.4 5.3 7.0 65 3.1 S 39 63 21 34 1020.0 1020.0 0.0
11/10:30am 13.6 6.4 7.8 68 2.9 S 35 56 19 30 1019.9 1019.9 0.0
11/10:00am 12.9 5.1 6.5 65 3.1 S 37 63 20 34 1019.6 1019.6 0.0
11/09:31am 13.1 6.7 6.9 66 3.0 SSE 30 50 16 27 1019.3 1019.3 0.0
11/09:30am 13.0 6.0 6.1 63 3.3 SSE 32 50 17 27 1019.3 1019.3 0.0
11/09:26am 13.1 5.4 7.3 68 2.8 SSE 37 57 20 31 1018.9 1018.9 0.0
11/09:02am 12.7 4.1 6.7 67 2.9 S 41 67 22 36 1019.0 1019.0 0.0
11/09:00am 12.4 4.0 5.6 63 3.2 SSE 39 67 21 36 1019.1 1019.1 4.4
11/08:30am 12.6 6.0 6.2 65 3.0 SSE 30 57 16 31 1018.4 1018.4 4.4
11/08:00am 11.4 4.6 6.9 74 2.1 SSE 32 57 17 31 1018.0 1018.0 4.4
11/07:42am 11.4 1.9 6.9 74 2.1 S 46 72 25 39 1018.0 1018.0 4.2
11/07:38am 12.1 3.5 6.6 69 2.6 S 41 69 22 37 1017.9 1017.9 4.2
11/07:30am 12.3 5.5 6.8 69 2.6 SSE 32 56 17 30 1017.5 1017.5 4.2
11/07:01am 12.0 4.6 6.9 71 2.4 S 35 61 19 33 1016.8 1016.8 4.2
11/07:00am 11.8 4.2 5.9 67 2.8 S 35 61 19 33 1017.3 1017.3 4.2
11/06:30am 11.7 5.5 6.2 69 2.6 SSE 28 59 15 32 1016.5 1016.5 4.2
11/06:00am 12.1 5.4 5.5 64 3.1 SSE 30 72 16 39 1016.1 1016.1 4.0
11/05:40am 12.2 1.0 5.8 65 3.0 S 54 72 29 39 1016.0 1016.0 4.0
11/05:33am 12.1 3.4 6.2 67 2.8 S 41 72 22 39 1016.0 1016.0 4.0
11/05:30am 12.4 5.0 4.9 60 3.5 S 33 70 18 38 1015.6 1015.6 4.0
11/05:07am 12.3 7.3 6.6 68 2.7 E 22 61 12 33 1015.5 1015.5 4.0
11/05:00am 11.7 7.2 7.0 73 2.2 ENE 20 48 11 26 1015.3 1015.3 4.0
11/04:52am 11.4 4.3 5.7 68 2.6 SE 32 72 17 39 1014.9 1014.9 4.0
11/04:47am 12.5 6.0 6.5 67 2.9 SE 30 65 16 35 1015.2 1015.2 4.0
11/04:46am 12.7 6.6 6.5 66 3.0 SE 28 52 15 28 1015.0 1015.0 4.0
11/04:42am 12.5 5.3 5.2 61 3.4 SSE 32 63 17 34 1014.7 1014.7 4.0
11/04:30am 12.4 3.8 4.9 60 3.5 S 39 65 21 35 1014.6 1014.5 4.0
11/04:00am 12.4 5.7 5.8 64 3.1 SSE 30 57 16 31 1014.1 1014.0 4.0
11/03:34am 11.6 3.3 5.9 68 2.7 S 39 78 21 42 1014.0 1013.9 4.0
11/03:32am 11.8 4.0 6.7 71 2.4 S 37 78 20 42 1014.3 1014.2 4.0
11/03:30am 11.8 5.0 6.7 71 2.4 S 32 69 17 37 1014.2 1014.1 4.0
11/03:00am 11.1 2.1 6.3 72 2.3 S 43 78 23 42 1014.0 1013.9 4.0
11/02:59am 11.1 1.9 6.5 73 2.2 S 44 78 24 42 1014.2 1014.1 4.0
11/02:52am 11.1 1.1 7.8 80 1.6 S 50 80 27 43 1014.1 1014.0 4.0
11/02:51am 10.8 1.0 7.1 78 1.8 S 48 80 26 43 1014.3 1014.2 4.0
11/02:45am 10.9 4.0 6.6 75 2.0 SSE 32 80 17 43 1014.3 1014.2 3.8
11/02:41am 11.7 6.8 7.0 73 2.3 E 22 46 12 25 1013.8 1013.7 3.8
11/02:30am 11.6 4.3 7.1 74 2.2 SSE 35 63 19 34 1013.9 1013.8 3.8
11/02:29am 11.6 3.9 6.9 73 2.2 SSE 37 63 20 34 1013.9 1013.8 3.8
11/02:18am 12.2 5.5 7.3 72 2.4 SE 32 72 17 39 1014.1 1014.0 3.6
11/02:13am 11.9 7.4 6.8 71 2.4 NE 20 46 11 25 1014.0 1013.9 3.6
11/02:00am 11.6 4.6 6.7 72 2.3 S 33 57 18 31 1014.0 1013.9 3.6
11/01:30am 11.3 1.0 6.4 72 2.3 S 50 74 27 40 1014.2 1014.1 3.6
11/01:27am 10.9 0.4 5.4 69 2.5 S 50 74 27 40 1014.2 1014.1 3.6
11/01:22am 11.0 3.9 6.2 72 2.2 SE 33 74 18 40 1014.3 1014.2 3.6
11/01:20am 11.3 5.5 6.4 72 2.3 E 26 65 14 35 1014.3 1014.2 3.6
11/01:00am 10.8 4.7 6.6 75 2.0 ESE 28 57 15 31 1013.5 1013.4 3.6
11/12:59am 11.0 5.2 6.4 73 2.2 E 26 54 14 29 1013.1 1013.0 3.6
11/12:55am 11.7 5.2 6.6 71 2.4 SE 30 56 16 30 1013.4 1013.3 3.6
11/12:34am 11.3 4.7 6.2 71 2.4 ESE 30 74 16 40 1013.8 1013.7 3.6
11/12:33am 11.8 6.1 6.5 70 2.5 ESE 26 52 14 28 1013.3 1013.2 3.6
11/12:30am 11.4 5.4 5.3 66 2.8 SE 26 44 14 24 1013.3 1013.2 3.6
11/12:28am 11.2 4.8 5.1 66 2.8 SSE 28 54 15 29 1013.3 1013.2 3.6
11/12:18am 10.5 3.4 5.7 72 2.2 SE 32 67 17 36 1013.6 1013.5 3.4
11/12:14am 11.1 4.9 6.0 71 2.4 SSE 28 54 15 29 1013.1 1013.0 3.4
11/12:00am 11.1 2.0 5.8 70 2.5 S 43 67 23 36 1013.4 1013.3 3.4
 
Date/Time
EST
Temp
°C
App
Temp
°C
Dew
Point
°C
Rel
Hum
%
Delta-T
°C
Wind Press
QNH
hPa
Press
MSL
hPa
Rain since
9am
mm
Dir  Spd
km/h
Gust
km/h
Spd
kts
Gust
kts
10/11:47pm 10.3 2.5 4.9 69 2.4 SE 35 69 19 37 1013.7 1013.6 3.4
10/11:40pm 10.8 0.2 5.3 69 2.5 SSE 50 76 27 41 1012.7 1012.6 3.2
10/11:31pm 10.5 3.2 5.5 71 2.3 SSE 33 78 18 42 1013.6 1013.5 3.2
10/11:30pm 10.9 4.2 5.4 69 2.5 SSE 30 78 16 42 1013.5 1013.4 3.2
10/11:27pm 11.4 5.5 5.7 68 2.6 SE 26 50 14 27 1013.2 1013.1 3.2
10/11:13pm 10.4 5.4 6.5 77 1.8 SE 22 37 12 20 1013.2 1013.1 3.2
10/11:01pm 9.1 0.6 5.3 77 1.7 SSE 39 67 21 36 1013.6 1013.5 3.2
10/11:00pm 9.1 1.1 5.5 78 1.6 SSE 37 67 20 36 1013.6 1013.5 3.2
10/10:36pm 10.2 3.5 5.8 74 2.0 SE 30 54 16 29 1013.0 1012.9 2.8
10/10:30pm 9.6 2.0 5.6 76 1.8 SE 35 61 19 33 1013.1 1013.0 2.8
10/10:24pm 10.4 -0.7 6.4 76 1.9 S 54 80 29 43 1012.7 1012.6 2.4
10/10:21pm 10.7 0.5 7.0 78 1.8 SSE 50 80 27 43 1012.7 1012.6 2.4
10/10:16pm 11.1 4.1 6.8 75 2.0 SSE 33 74 18 40 1012.9 1012.8 2.4
10/10:11pm 11.4 5.7 6.7 73 2.2 ENE 26 50 14 27 1012.8 1012.7 2.2
10/10:00pm 11.9 6.0 5.8 66 2.9 ENE 26 57 14 31 1012.3 1012.2 2.2
10/09:30pm 10.8 3.8 5.8 71 2.3 SSE 32 56 17 30 1012.5 1012.4 2.2
10/09:21pm 10.9 3.9 5.9 71 2.3 SSE 32 56 17 30 1012.1 1012.0 2.0
10/09:05pm 11.8 4.8 5.9 67 2.8 SE 32 65 17 35 1012.0 1011.9 2.0
10/09:00pm 12.1 5.7 5.0 62 3.3 ESE 28 59 15 32 1011.8 1011.7 2.0
10/08:30pm 11.6 5.6 7.1 74 2.2 ENE 28 56 15 30 1011.7 1011.6 1.8
10/08:04pm 9.8 2.4 6.9 82 1.4 SE 35 70 19 38 1011.5 1011.4 1.8
10/08:00pm 10.7 3.6 6.6 76 1.9 SE 33 70 18 38 1011.3 1011.2 1.6
10/07:58pm 11.2 4.3 6.3 72 2.3 ESE 32 70 17 38 1011.2 1011.1 1.6
10/07:51pm 12.1 6.7 6.2 67 2.8 NE 24 52 13 28 1011.1 1011.0 1.6
10/07:30pm 11.2 5.6 7.3 77 1.9 SE 26 52 14 28 1011.3 1011.2 1.6
10/07:00pm 10.9 5.1 7.8 81 1.5 NNW 28 48 15 26 1011.3 1011.2 1.6
10/06:37pm 11.5 5.5 7.0 74 2.2 NE 28 52 15 28 1010.2 1010.1 0.8
10/06:30pm 12.3 6.9 6.4 67 2.8 NNE 24 43 13 23 1010.1 1010.0 0.8
10/06:00pm 10.9 4.3 7.6 80 1.6 ESE 32 57 17 31 1010.2 1010.1 0.8
10/05:38pm 11.5 5.2 7.6 77 1.9 W 30 48 16 26 1010.4 1010.3 0.6
10/05:30pm 10.8 5.4 7.9 82 1.4 NW 26 48 14 26 1010.5 1010.4 0.6
10/05:01pm 11.5 3.1 7.4 76 2.0 WSW 41 63 22 34 1010.2 1010.1 0.2
10/05:00pm 11.7 2.8 7.6 76 2.0 W 44 67 24 36 1010.1 1010.0 0.2
10/04:46pm 12.5 6.4 6.5 67 2.9 NNW 28 67 15 36 1009.7 1009.6 0.0
10/04:30pm 13.4 7.2 6.3 62 3.4 NW 28 50 15 27 1009.9 1009.8 0.0
10/04:23pm 13.4 7.3 6.5 63 3.3 NNW 28 46 15 25 1009.9 1009.8 0.0
10/04:12pm 13.6 5.7 6.0 60 3.6 W 37 57 20 31 1009.8 1009.7 0.0
10/04:00pm 13.7 7.6 6.6 62 3.4 NNW 28 59 15 32 1010.0 1009.9 0.0
10/03:30pm 14.0 6.8 5.9 58 3.9 W 33 63 18 34 1009.9 1009.8 0.0
10/03:04pm 13.6 7.1 6.5 62 3.4 NW 30 54 16 29 1010.0 1009.9 0.0
10/03:00pm 14.0 8.2 6.1 59 3.8 NW 26 43 14 23 1009.7 1009.6 0.0
10/02:31pm 13.6 6.9 5.5 58 3.8 NW 30 52 16 28 1009.8 1009.7 0.0
10/02:30pm 13.8 7.7 6.4 61 3.6 NW 28 52 15 28 1009.8 1009.7 0.0
10/02:27pm 13.9 7.8 6.7 62 3.5 NW 28 52 15 28 1010.0 1009.9 0.0
10/02:17pm 14.0 6.9 5.6 57 4.0 NW 32 54 17 29 1009.6 1009.5 0.0
10/02:06pm 14.0 6.8 6.1 59 3.8 WNW 33 63 18 34 1010.0 1009.9 0.0
10/02:05pm 14.0 7.0 6.1 59 3.8 NW 32 54 17 29 1009.9 1009.8 0.0
10/02:03pm 14.1 7.9 6.2 59 3.8 NW 28 50 15 27 1009.7 1009.6 0.0
10/02:00pm 14.1 7.9 6.0 58 3.9 NW 28 44 15 24 1009.8 1009.7 0.0
10/01:30pm 14.2 7.4 6.8 61 3.6 WNW 32 54 17 29 1010.0 1009.9 0.0
10/01:17pm 13.9 7.8 6.7 62 3.5 N 28 50 15 27 1009.9 1009.8 0.0
10/01:00pm 13.3 8.1 7.3 67 2.9 NNW 24 43 13 23 1010.0 1009.9 0.0
10/12:45pm 13.2 6.5 8.1 71 2.5 WNW 33 54 18 29 1010.3 1010.2 0.0
10/12:42pm 12.8 6.1 7.3 69 2.7 NW 32 54 17 29 1010.5 1010.4 0.0
10/12:39pm 12.7 6.8 7.4 70 2.6 N 28 48 15 26 1010.3 1010.2 0.0
10/12:30pm 13.7 8.0 8.3 70 2.7 NNW 28 57 15 31 1010.0 1009.9 0.0
10/12:18pm 13.4 6.5 7.4 67 2.9 W 33 69 18 37 1009.9 1009.8 0.0
10/12:05pm 14.3 9.1 7.1 62 3.5 NNW 24 48 13 26 1010.1 1010.0 0.0
10/12:00pm 14.3 10.2 8.7 69 2.8 N 20 33 11 18 1010.2 1010.1 0.0
10/11:32am 14.8 8.9 7.6 62 3.6 NW 28 52 15 28 1009.7 1009.6 0.0
10/11:30am 15.0 8.8 6.0 55 4.3 NW 28 52 15 28 1009.8 1009.7 0.0
10/11:06am 14.6 8.2 6.9 60 3.8 WNW 30 54 16 29 1009.9 1009.8 0.0
10/11:00am 14.8 7.4 6.9 59 3.9 W 35 56 19 30 1009.8 1009.7 0.0
10/10:38am 14.9 9.0 7.7 62 3.6 WNW 28 46 15 25 1009.8 1009.7 0.0
10/10:30am 14.6 9.3 6.7 59 3.8 N 24 46 13 25 1009.6 1009.5 0.0
10/10:00am 15.2 10.0 7.3 59 3.9 N 24 46 13 25 1009.2 1009.1 0.0
10/09:30am 14.4 9.4 8.1 66 3.2 NNE 24 41 13 22 1009.2 1009.1 0.0
10/09:00am 14.9 9.7 7.2 60 3.8 NNE 24 37 13 20 1008.7 1008.6 3.4
10/08:30am 14.6 8.9 6.7 59 3.8 NE 26 41 14 22 1008.3 1008.2 3.4
10/08:00am 14.0 8.2 8.0 67 3.0 NNE 28 56 15 30 1007.9 1007.8 3.4
10/07:49am 14.2 8.7 9.2 72 2.6 NNE 28 46 15 25 1007.5 1007.4 3.4
10/07:30am 13.3 10.1 11.9 91 0.8 NNW 20 37 11 20 1007.8 1007.7 3.4
10/07:00am 13.0 9.0 11.9 93 0.6 NNE 24 43 13 23 1007.4 1007.3 3.0
10/06:38am 13.6 8.6 12.2 91 0.8 NNW 30 59 16 32 1006.8 1006.7 2.2
10/06:33am 13.3 6.0 11.4 88 1.0 W 41 63 22 34 1007.0 1006.9 2.2
10/06:30am 14.0 6.4 11.9 87 1.1 W 43 63 23 34 1007.4 1007.3 2.0
10/06:25am 13.6 7.0 11.5 87 1.1 WNW 37 65 20 35 1007.3 1007.2 2.0
10/06:19am 14.1 6.7 11.3 83 1.5 W 41 65 22 35 1006.6 1006.5 1.6
10/06:16am 15.5 7.0 10.7 73 2.5 W 46 65 25 35 1007.1 1007.0 1.6
10/06:00am 15.6 7.6 10.6 72 2.7 W 43 57 23 31 1007.1 1007.0 1.6
10/05:37am 15.1 7.7 11.1 77 2.1 W 41 59 22 32 1007.0 1006.9 1.6
10/05:30am 15.1 7.3 11.1 77 2.1 WSW 43 59 23 32 1007.1 1007.0 1.6
10/05:14am 14.4 9.7 11.9 85 1.3 W 28 48 15 26 1007.0 1006.9 1.6
10/05:00am 14.1 8.4 11.8 86 1.2 W 33 46 18 25 1007.0 1006.9 1.6
10/04:40am 12.9 5.7 12.0 94 0.5 W 41 67 22 36 1007.0 1006.9 1.6
10/04:35am 12.7 5.1 11.8 94 0.5 W 43 67 23 36 1007.1 1007.0 1.6
10/04:30am 13.2 7.8 12.1 93 0.6 W 32 61 17 33 1007.1 1007.0 1.4
10/04:00am 14.1 5.8 11.4 84 1.4 W 46 67 25 36 1007.3 1007.2 0.4
10/03:57am 14.1 5.9 11.6 85 1.3 W 46 67 25 36 1007.3 1007.2 0.4
10/03:53am 14.4 6.2 11.7 84 1.5 W 46 67 25 36 1007.2 1007.1 0.4
10/03:37am 14.7 9.1 12.0 84 1.5 W 33 54 18 29 1007.4 1007.3 0.4
10/03:30am 14.6 8.9 11.9 84 1.5 W 33 50 18 27 1007.4 1007.3 0.4
10/03:19am 14.3 9.3 12.2 87 1.1 W 30 52 16 28 1007.6 1007.5 0.4
10/03:00am 13.8 9.1 12.0 89 1.0 W 28 43 15 23 1007.7 1007.6 0.4
10/02:30am 13.3 7.4 11.2 87 1.1 W 33 54 18 29 1008.0 1007.9 0.2
10/02:11am 14.4 8.4 10.0 75 2.3 W 32 52 17 28 1008.2 1008.1 0.0
10/02:00am 13.8 8.8 11.1 84 1.4 W 28 37 15 20 1008.3 1008.2 0.0
10/01:43am 13.8 8.5 11.3 85 1.3 W 30 48 16 26 1008.6 1008.5 0.0
10/01:30am 13.6 7.1 10.4 81 1.7 W 35 48 19 26 1008.7 1008.6 0.0
10/01:09am 15.0 9.7 9.8 71 2.7 W 28 46 15 25 1008.7 1008.6 0.0
10/01:00am 14.6 11.0 10.4 76 2.2 W 20 33 11 18 1008.8 1008.7 0.0
10/12:30am 14.7 10.1 9.7 72 2.6 W 24 35 13 19 1009.1 1009.0 0.0
10/12:00am 14.2 9.8 10.4 78 2.0 W 24 37 13 20 1009.5 1009.4 0.0
 
Date/Time
EST
Temp
°C
App
Temp
°C
Dew
Point
°C
Rel
Hum
%
Delta-T
°C
Wind Press
QNH
hPa
Press
MSL
hPa
Rain since
9am
mm
Dir  Spd
km/h
Gust
km/h
Spd
kts
Gust
kts
09/11:30pm 14.4 9.7 9.2 71 2.7 W 24 35 13 19 1009.9 1009.8 0.0
09/11:00pm 14.4 9.3 9.2 71 2.7 W 26 37 14 20 1010.1 1010.0 0.0
09/10:30pm 14.1 9.4 9.3 73 2.5 WNW 24 37 13 20 1010.4 1010.3 0.0
09/10:00pm 14.4 10.6 9.0 70 2.8 W 19 30 10 16 1010.5 1010.4 0.0
09/09:30pm 13.9 10.2 9.3 74 2.3 WNW 19 24 10 13 1010.7 1010.6 0.0
09/09:00pm 14.1 10.3 8.9 71 2.6 W 19 26 10 14 1010.9 1010.8 0.0
09/08:30pm 14.4 10.3 8.8 69 2.8 WNW 20 37 11 20 1010.8 1010.7 0.0
09/08:00pm 14.5 10.4 7.8 64 3.3 WNW 19 33 10 18 1010.7 1010.6 0.0
09/07:30pm 14.5 11.3 8.5 67 3.0 WNW 15 26 8 14 1010.6 1010.5 0.0
09/07:00pm 14.3 11.2 7.4 63 3.4 NNW 13 20 7 11 1010.5 1010.4 0.0
09/06:30pm 14.3 11.5 6.9 61 3.6 N 11 19 6 10 1010.4 1010.3 0.0
09/06:00pm 14.3 11.0 6.4 59 3.8 NNE 13 20 7 11 1010.3 1010.2 0.0
09/05:30pm 14.5 11.4 7.1 61 3.6 NNE 13 24 7 13 1010.4 1010.3 0.0
09/05:00pm 14.6 11.1 7.2 61 3.6 NW 15 24 8 13 1010.6 1010.5 0.0
09/04:30pm 14.8 11.0 7.4 61 3.7 WNW 17 26 9 14 1010.6 1010.5 0.0
09/04:00pm 15.3 11.8 7.1 58 4.0 NNW 15 24 8 13 1010.7 1010.6 0.0
09/03:30pm 15.5 12.0 7.0 57 4.2 NW 15 24 8 13 1010.6 1010.5 0.0
09/03:00pm 15.7 12.3 7.5 58 4.1 NW 15 28 8 15 1010.6 1010.5 0.0
09/02:30pm 15.5 12.1 7.8 60 3.9 NNW 15 28 8 15 1010.9 1010.8 0.0
09/02:00pm 15.4 12.4 7.7 60 3.8 NNE 13 20 7 11 1011.1 1011.0 0.0
09/01:30pm 15.9 12.3 6.9 55 4.4 ENE 15 22 8 12 1011.2 1011.1 0.0
09/01:00pm 16.0 13.0 7.7 58 4.2 NNE 13 24 7 13 1011.5 1011.4 0.0
09/12:30pm 16.2 13.4 8.4 60 4.0 ENE 13 24 7 13 1011.6 1011.5 0.0
09/12:00pm 15.6 11.7 9.5 67 3.2 S 20 32 11 17 1011.7 1011.6 0.0
09/11:30am 15.5 11.0 8.5 63 3.6 S 22 35 12 19 1011.7 1011.6 0.0
09/11:00am 15.6 12.9 8.8 64 3.5 SE 13 26 7 14 1011.6 1011.5 0.0
09/10:30am 15.3 11.5 9.0 66 3.2 S 19 28 10 15 1011.7 1011.6 0.0
09/10:00am 15.4 11.0 8.9 65 3.3 S 22 35 12 19 1011.7 1011.6 0.0
09/09:30am 14.5 8.2 7.5 63 3.5 S 30 48 16 26 1011.6 1011.5 0.0
09/09:21am 14.4 8.9 9.2 71 2.7 SSE 28 48 15 26 1011.4 1011.3 0.0
09/09:00am 14.7 10.7 8.4 66 3.2 SE 19 32 10 17 1011.1 1011.0 6.2
09/08:30am 14.4 10.4 9.0 70 2.8 SSE 20 39 11 21 1010.8 1010.7 6.2
09/08:00am 14.3 10.4 8.7 69 2.8 E 19 32 10 17 1010.4 1010.3 6.2
09/07:41am 13.7 8.3 9.6 76 2.1 SSE 28 39 15 21 1010.1 1010.0 6.2
09/07:30am 13.0 6.0 10.0 82 1.5 S 37 57 20 31 1010.3 1010.2 6.2
09/07:23am 13.2 7.6 10.2 82 1.6 SSE 30 54 16 29 1010.1 1010.0 6.2
09/07:19am 13.5 9.0 10.1 80 1.8 ESE 24 44 13 24 1009.9 1009.8 6.2
09/07:00am 14.4 11.3 8.8 69 2.8 NNE 15 26 8 14 1009.7 1009.6 6.2
09/06:30am 14.3 10.4 8.7 69 2.8 NE 19 32 10 17 1009.4 1009.3 6.2
09/06:00am 14.1 10.4 9.3 73 2.5 ENE 19 33 10 18 1009.2 1009.1 6.2
09/05:30am 14.7 10.8 8.6 67 3.1 NNW 19 30 10 16 1009.0 1008.9 6.2
09/05:00am 14.5 11.1 9.1 70 2.8 N 17 35 9 19 1008.9 1008.8 6.2
09/04:30am 14.6 11.1 7.2 61 3.6 NNE 15 35 8 19 1008.9 1008.8 6.2
09/04:00am 14.5 10.3 7.3 62 3.6 NE 19 33 10 18 1008.7 1008.6 6.2
09/03:30am 14.5 10.6 7.3 62 3.5 NE 17 32 9 17 1008.7 1008.6 6.2
09/03:00am 14.4 10.1 7.2 62 3.5 N 19 30 10 16 1008.5 1008.4 6.2
09/02:30am 14.5 9.9 6.6 59 3.8 NE 20 35 11 19 1008.5 1008.4 6.2
09/02:00am 14.5 10.0 7.1 61 3.6 NE 20 35 11 19 1008.5 1008.4 6.2
09/01:30am 14.4 10.3 8.6 68 2.9 NE 20 35 11 19 1008.3 1008.2 6.2
09/01:00am 14.5 10.3 9.9 74 2.4 ESE 22 41 12 22 1008.6 1008.5 6.2
09/12:30am 14.6 10.2 10.4 76 2.2 SE 24 43 13 23 1008.6 1008.5 6.2
09/12:00am 14.9 11.5 11.3 79 1.9 SSE 20 44 11 24 1008.5 1008.4 6.2
 
Date/Time
EST
Temp
°C
App
Temp
°C
Dew
Point
°C
Rel
Hum
%
Delta-T
°C
Wind Press
QNH
hPa
Press
MSL
hPa
Rain since
9am
mm
Dir  Spd
km/h
Gust
km/h
Spd
kts
Gust
kts
08/11:30pm 15.1 11.1 11.9 81 1.7 SSE 24 37 13 20 1008.2 1008.1 6.2
08/11:00pm 15.0 11.1 12.1 83 1.6 SSE 24 35 13 19 1008.0 1007.9 6.2
08/10:30pm 14.5 11.6 13.0 91 0.8 SE 20 41 11 22 1007.8 1007.7 6.2
08/10:00pm 14.3 11.5 13.3 94 0.6 SE 20 37 11 20 1007.5 1007.4 6.0
08/09:30pm 15.0 13.5 14.2 95 0.5 ENE 15 28 8 15 1007.2 1007.1 5.2
08/09:00pm 15.6 11.4 14.6 94 0.6 W 30 39 16 21 1007.0 1006.9 4.6
08/08:30pm 15.9 13.3 14.8 93 0.6 W 22 32 12 17 1006.6 1006.5 3.4
08/08:00pm 16.1 13.3 15.3 95 0.5 W 24 32 13 17 1006.4 1006.3 3.2
08/07:30pm 16.8 15.3 16.3 97 0.3 W 19 26 10 14 1006.0 1005.9 2.8
08/07:00pm 17.0 15.4 16.4 96 0.4 WNW 20 32 11 17 1006.4 1006.3 2.4
08/06:30pm 17.1 15.0 16.3 95 0.5 WNW 22 30 12 16 1006.6 1006.5 1.6
08/06:00pm 17.1 15.0 16.1 94 0.6 WNW 22 28 12 15 1006.3 1006.2 1.0
08/05:30pm 17.3 15.4 15.8 91 0.9 WNW 20 28 11 15 1005.9 1005.8 0.8
08/05:00pm 17.5 14.3 15.3 87 1.3 WNW 26 35 14 19 1006.3 1006.2 0.4

Other formats

Comma delimited format used in spreadsheet applications
http://www.bom.gov.au/fwo/IDV60801/IDV60801.94826.axf

JavaScript Object Notation format (JSON) in row-major order
http://www.bom.gov.au/fwo/IDV60801/IDV60801.94826.json

Data quality

Most of these data are generated automatically and are frequently updated. Quality checks on data are not normally performed. It is possible for incorrect values to appear. Refer to information at About Latest Weather Observations and please check the disclaimer before using these data.